sensor_id;sensor_type;location;lat;lon;timestamp;P1;durP1;ratioP1;P2;durP2;ratioP2
19739;SDS011;10027;51.066;13.768;2024-02-23T00:00:38;2.13;;;1.80;;
19739;SDS011;10027;51.066;13.768;2024-02-23T00:03:05;2.30;;;2.10;;
19739;SDS011;10027;51.066;13.768;2024-02-23T00:05:33;2.00;;;1.80;;
19739;SDS011;10027;51.066;13.768;2024-02-23T00:08:01;2.13;;;1.93;;
19739;SDS011;10027;51.066;13.768;2024-02-23T00:10:28;2.10;;;1.90;;
19739;SDS011;10027;51.066;13.768;2024-02-23T00:12:55;1.57;;;1.47;;
19739;SDS011;10027;51.066;13.768;2024-02-23T00:15:22;2.27;;;2.00;;
19739;SDS011;10027;51.066;13.768;2024-02-23T00:17:51;2.27;;;2.03;;
19739;SDS011;10027;51.066;13.768;2024-02-23T00:20:18;2.13;;;1.80;;
19739;SDS011;10027;51.066;13.768;2024-02-23T00:22:45;1.83;;;1.70;;
19739;SDS011;10027;51.066;13.768;2024-02-23T00:25:12;1.80;;;1.43;;
19739;SDS011;10027;51.066;13.768;2024-02-23T00:27:40;1.10;;;1.00;;
19739;SDS011;10027;51.066;13.768;2024-02-23T00:30:08;1.63;;;1.00;;
19739;SDS011;10027;51.066;13.768;2024-02-23T00:32:35;1.40;;;1.30;;
19739;SDS011;10027;51.066;13.768;2024-02-23T00:35:02;1.30;;;1.20;;
19739;SDS011;10027;51.066;13.768;2024-02-23T00:37:29;1.50;;;1.40;;
19739;SDS011;10027;51.066;13.768;2024-02-23T00:40:02;1.70;;;1.57;;
19739;SDS011;10027;51.066;13.768;2024-02-23T00:42:30;1.37;;;1.27;;
19739;SDS011;10027;51.066;13.768;2024-02-23T00:44:57;2.20;;;2.00;;
19739;SDS011;10027;51.066;13.768;2024-02-23T00:47:26;1.60;;;1.50;;
19739;SDS011;10027;51.066;13.768;2024-02-23T00:49:54;1.50;;;1.40;;
19739;SDS011;10027;51.066;13.768;2024-02-23T00:52:21;1.60;;;1.50;;
19739;SDS011;10027;51.066;13.768;2024-02-23T00:54:48;1.33;;;1.23;;
19739;SDS011;10027;51.066;13.768;2024-02-23T00:57:15;1.40;;;1.30;;
19739;SDS011;10027;51.066;13.768;2024-02-23T00:59:45;1.27;;;0.70;;
19739;SDS011;10027;51.066;13.768;2024-02-23T01:02:12;3.20;;;1.23;;
19739;SDS011;10027;51.066;13.768;2024-02-23T01:04:39;0.37;;;0.37;;
19739;SDS011;10027;51.066;13.768;2024-02-23T01:07:06;0.40;;;0.40;;
19739;SDS011;10027;51.066;13.768;2024-02-23T01:09:33;0.87;;;0.30;;
19739;SDS011;10027;51.066;13.768;2024-02-23T01:12:00;0.80;;;0.20;;
19739;SDS011;10027;51.066;13.768;2024-02-23T01:14:28;0.20;;;0.20;;
19739;SDS011;10027;51.066;13.768;2024-02-23T01:16:55;0.20;;;0.20;;
19739;SDS011;10027;51.066;13.768;2024-02-23T01:19:22;0.30;;;0.27;;
19739;SDS011;10027;51.066;13.768;2024-02-23T01:21:50;0.27;;;0.20;;
19739;SDS011;10027;51.066;13.768;2024-02-23T01:24:26;0.23;;;0.20;;
19739;SDS011;10027;51.066;13.768;2024-02-23T01:26:55;0.30;;;0.17;;
19739;SDS011;10027;51.066;13.768;2024-02-23T01:29:25;0.13;;;0.10;;
19739;SDS011;10027;51.066;13.768;2024-02-23T01:31:52;0.47;;;0.30;;
19739;SDS011;10027;51.066;13.768;2024-02-23T01:34:22;0.20;;;0.20;;
19739;SDS011;10027;51.066;13.768;2024-02-23T01:36:50;0.40;;;0.33;;
19739;SDS011;10027;51.066;13.768;2024-02-23T01:39:17;0.50;;;0.30;;
19739;SDS011;10027;51.066;13.768;2024-02-23T01:41:44;0.60;;;0.30;;
19739;SDS011;10027;51.066;13.768;2024-02-23T01:44:11;0.77;;;0.30;;
19739;SDS011;10027;51.066;13.768;2024-02-23T01:46:38;0.40;;;0.20;;
19739;SDS011;10027;51.066;13.768;2024-02-23T01:49:05;0.30;;;0.30;;
19739;SDS011;10027;51.066;13.768;2024-02-23T01:51:33;1.57;;;0.30;;
19739;SDS011;10027;51.066;13.768;2024-02-23T01:54:01;0.50;;;0.27;;
19739;SDS011;10027;51.066;13.768;2024-02-23T01:56:29;0.47;;;0.33;;
19739;SDS011;10027;51.066;13.768;2024-02-23T01:58:56;0.50;;;0.40;;
19739;SDS011;10027;51.066;13.768;2024-02-23T02:01:24;0.40;;;0.30;;
19739;SDS011;10027;51.066;13.768;2024-02-23T02:03:51;0.20;;;0.20;;
19739;SDS011;10027;51.066;13.768;2024-02-23T02:06:18;0.20;;;0.20;;
19739;SDS011;10027;51.066;13.768;2024-02-23T02:08:45;0.23;;;0.23;;
19739;SDS011;10027;51.066;13.768;2024-02-23T02:11:12;0.50;;;0.30;;
19739;SDS011;10027;51.066;13.768;2024-02-23T02:13:40;0.60;;;0.20;;
19739;SDS011;10027;51.066;13.768;2024-02-23T02:16:07;0.27;;;0.27;;
19739;SDS011;10027;51.066;13.768;2024-02-23T02:18:34;0.47;;;0.30;;
19739;SDS011;10027;51.066;13.768;2024-02-23T02:21:01;0.30;;;0.20;;
19739;SDS011;10027;51.066;13.768;2024-02-23T02:23:28;0.30;;;0.30;;
19739;SDS011;10027;51.066;13.768;2024-02-23T02:25:56;0.37;;;0.23;;
19739;SDS011;10027;51.066;13.768;2024-02-23T02:28:24;0.70;;;0.30;;
19739;SDS011;10027;51.066;13.768;2024-02-23T02:30:51;0.30;;;0.20;;
19739;SDS011;10027;51.066;13.768;2024-02-23T02:33:19;0.10;;;0.10;;
19739;SDS011;10027;51.066;13.768;2024-02-23T02:35:46;0.40;;;0.30;;
19739;SDS011;10027;51.066;13.768;2024-02-23T02:38:13;0.50;;;0.20;;
19739;SDS011;10027;51.066;13.768;2024-02-23T02:40:41;0.20;;;0.20;;
19739;SDS011;10027;51.066;13.768;2024-02-23T02:43:08;0.90;;;0.30;;
19739;SDS011;10027;51.066;13.768;2024-02-23T02:45:35;0.10;;;0.10;;
19739;SDS011;10027;51.066;13.768;2024-02-23T02:48:03;0.80;;;0.30;;
19739;SDS011;10027;51.066;13.768;2024-02-23T02:50:31;0.20;;;0.20;;
19739;SDS011;10027;51.066;13.768;2024-02-23T02:52:58;0.73;;;0.20;;
19739;SDS011;10027;51.066;13.768;2024-02-23T02:55:25;0.23;;;0.23;;
19739;SDS011;10027;51.066;13.768;2024-02-23T02:57:52;1.20;;;0.37;;
19739;SDS011;10027;51.066;13.768;2024-02-23T03:00:19;0.83;;;0.20;;
19739;SDS011;10027;51.066;13.768;2024-02-23T03:02:47;0.30;;;0.20;;
19739;SDS011;10027;51.066;13.768;2024-02-23T03:05:14;0.50;;;0.30;;
19739;SDS011;10027;51.066;13.768;2024-02-23T03:07:41;1.93;;;0.20;;
19739;SDS011;10027;51.066;13.768;2024-02-23T03:10:08;0.60;;;0.23;;
19739;SDS011;10027;51.066;13.768;2024-02-23T03:12:35;0.50;;;0.30;;
19739;SDS011;10027;51.066;13.768;2024-02-23T03:15:02;0.83;;;0.10;;
19739;SDS011;10027;51.066;13.768;2024-02-23T03:17:30;0.53;;;0.20;;
19739;SDS011;10027;51.066;13.768;2024-02-23T03:19:57;0.10;;;0.10;;
19739;SDS011;10027;51.066;13.768;2024-02-23T03:22:24;0.27;;;0.10;;
19739;SDS011;10027;51.066;13.768;2024-02-23T03:24:52;0.50;;;0.20;;
19739;SDS011;10027;51.066;13.768;2024-02-23T03:27:19;1.90;;;0.20;;
19739;SDS011;10027;51.066;13.768;2024-02-23T03:29:46;0.23;;;0.20;;
19739;SDS011;10027;51.066;13.768;2024-02-23T03:32:14;0.30;;;0.30;;
19739;SDS011;10027;51.066;13.768;2024-02-23T03:34:41;0.47;;;0.20;;
19739;SDS011;10027;51.066;13.768;2024-02-23T03:37:09;0.30;;;0.30;;
19739;SDS011;10027;51.066;13.768;2024-02-23T03:39:36;0.40;;;0.20;;
19739;SDS011;10027;51.066;13.768;2024-02-23T03:42:04;0.20;;;0.20;;
19739;SDS011;10027;51.066;13.768;2024-02-23T03:44:31;0.30;;;0.17;;
19739;SDS011;10027;51.066;13.768;2024-02-23T03:46:59;0.30;;;0.30;;
19739;SDS011;10027;51.066;13.768;2024-02-23T03:49:26;0.10;;;0.10;;
19739;SDS011;10027;51.066;13.768;2024-02-23T03:51:53;0.30;;;0.20;;
19739;SDS011;10027;51.066;13.768;2024-02-23T03:54:20;0.10;;;0.10;;
19739;SDS011;10027;51.066;13.768;2024-02-23T03:56:47;0.33;;;0.10;;
19739;SDS011;10027;51.066;13.768;2024-02-23T03:59:15;1.03;;;0.20;;
19739;SDS011;10027;51.066;13.768;2024-02-23T04:01:42;0.30;;;0.30;;
19739;SDS011;10027;51.066;13.768;2024-02-23T04:04:10;0.40;;;0.10;;
19739;SDS011;10027;51.066;13.768;2024-02-23T04:06:37;0.47;;;0.20;;
19739;SDS011;10027;51.066;13.768;2024-02-23T04:09:05;0.10;;;0.10;;
19739;SDS011;10027;51.066;13.768;2024-02-23T04:11:32;0.80;;;0.10;;
19739;SDS011;10027;51.066;13.768;2024-02-23T04:14:00;0.47;;;0.20;;
19739;SDS011;10027;51.066;13.768;2024-02-23T04:16:27;0.50;;;0.13;;
19739;SDS011;10027;51.066;13.768;2024-02-23T04:18:54;0.10;;;0.10;;
19739;SDS011;10027;51.066;13.768;2024-02-23T04:21:23;0.30;;;0.20;;
19739;SDS011;10027;51.066;13.768;2024-02-23T04:23:50;1.33;;;0.20;;
19739;SDS011;10027;51.066;13.768;2024-02-23T04:26:17;0.27;;;0.20;;
19739;SDS011;10027;51.066;13.768;2024-02-23T04:28:45;0.30;;;0.10;;
19739;SDS011;10027;51.066;13.768;2024-02-23T04:31:12;0.50;;;0.20;;
19739;SDS011;10027;51.066;13.768;2024-02-23T04:33:39;4.33;;;0.50;;
19739;SDS011;10027;51.066;13.768;2024-02-23T04:36:07;0.17;;;0.10;;
19739;SDS011;10027;51.066;13.768;2024-02-23T04:38:34;0.60;;;0.17;;
19739;SDS011;10027;51.066;13.768;2024-02-23T04:41:02;0.60;;;0.20;;
19739;SDS011;10027;51.066;13.768;2024-02-23T04:43:33;0.73;;;0.20;;
19739;SDS011;10027;51.066;13.768;2024-02-23T04:46:00;2.20;;;0.20;;
19739;SDS011;10027;51.066;13.768;2024-02-23T04:48:27;0.30;;;0.17;;
19739;SDS011;10027;51.066;13.768;2024-02-23T04:50:57;0.43;;;0.17;;
19739;SDS011;10027;51.066;13.768;2024-02-23T04:53:24;0.90;;;0.30;;
19739;SDS011;10027;51.066;13.768;2024-02-23T04:55:51;0.73;;;0.20;;
19739;SDS011;10027;51.066;13.768;2024-02-23T04:58:18;0.37;;;0.10;;
19739;SDS011;10027;51.066;13.768;2024-02-23T05:00:47;1.07;;;0.30;;
19739;SDS011;10027;51.066;13.768;2024-02-23T05:03:14;0.53;;;0.20;;
19739;SDS011;10027;51.066;13.768;2024-02-23T05:05:42;0.30;;;0.20;;
19739;SDS011;10027;51.066;13.768;2024-02-23T05:08:09;0.60;;;0.30;;
19739;SDS011;10027;51.066;13.768;2024-02-23T05:10:36;0.50;;;0.30;;
19739;SDS011;10027;51.066;13.768;2024-02-23T05:13:03;0.90;;;0.30;;
19739;SDS011;10027;51.066;13.768;2024-02-23T05:15:31;1.13;;;0.30;;
19739;SDS011;10027;51.066;13.768;2024-02-23T05:17:58;1.67;;;0.43;;
19739;SDS011;10027;51.066;13.768;2024-02-23T05:20:25;6.37;;;2.83;;
19739;SDS011;10027;51.066;13.768;2024-02-23T05:22:52;0.77;;;0.27;;
19739;SDS011;10027;51.066;13.768;2024-02-23T05:25:20;0.77;;;0.30;;
19739;SDS011;10027;51.066;13.768;2024-02-23T05:27:47;1.90;;;0.40;;
19739;SDS011;10027;51.066;13.768;2024-02-23T05:30:14;1.13;;;0.60;;
19739;SDS011;10027;51.066;13.768;2024-02-23T05:32:41;0.53;;;0.23;;
19739;SDS011;10027;51.066;13.768;2024-02-23T05:35:08;2.73;;;0.60;;
19739;SDS011;10027;51.066;13.768;2024-02-23T05:37:36;0.50;;;0.20;;
19739;SDS011;10027;51.066;13.768;2024-02-23T05:40:03;0.50;;;0.30;;
19739;SDS011;10027;51.066;13.768;2024-02-23T05:42:36;0.30;;;0.20;;
19739;SDS011;10027;51.066;13.768;2024-02-23T05:45:06;1.13;;;0.40;;
19739;SDS011;10027;51.066;13.768;2024-02-23T05:47:40;0.40;;;0.30;;
19739;SDS011;10027;51.066;13.768;2024-02-23T05:50:12;4.70;;;0.40;;
19739;SDS011;10027;51.066;13.768;2024-02-23T05:52:39;0.73;;;0.30;;
19739;SDS011;10027;51.066;13.768;2024-02-23T05:55:07;0.40;;;0.40;;
19739;SDS011;10027;51.066;13.768;2024-02-23T05:57:34;0.90;;;0.30;;
19739;SDS011;10027;51.066;13.768;2024-02-23T06:00:01;1.23;;;0.23;;
19739;SDS011;10027;51.066;13.768;2024-02-23T06:02:29;0.40;;;0.20;;
19739;SDS011;10027;51.066;13.768;2024-02-23T06:04:56;0.87;;;0.20;;
19739;SDS011;10027;51.066;13.768;2024-02-23T06:07:23;1.67;;;0.37;;
19739;SDS011;10027;51.066;13.768;2024-02-23T06:09:57;1.07;;;0.30;;
19739;SDS011;10027;51.066;13.768;2024-02-23T06:12:24;0.40;;;0.30;;
19739;SDS011;10027;51.066;13.768;2024-02-23T06:14:51;0.53;;;0.20;;
19739;SDS011;10027;51.066;13.768;2024-02-23T06:17:18;0.30;;;0.27;;
19739;SDS011;10027;51.066;13.768;2024-02-23T06:19:45;2.43;;;0.43;;
19739;SDS011;10027;51.066;13.768;2024-02-23T06:22:12;0.60;;;0.20;;
19739;SDS011;10027;51.066;13.768;2024-02-23T06:24:42;1.40;;;0.40;;
19739;SDS011;10027;51.066;13.768;2024-02-23T06:27:10;0.87;;;0.40;;
19739;SDS011;10027;51.066;13.768;2024-02-23T06:29:37;1.07;;;0.40;;
19739;SDS011;10027;51.066;13.768;2024-02-23T06:32:04;0.70;;;0.30;;
19739;SDS011;10027;51.066;13.768;2024-02-23T06:34:32;0.70;;;0.37;;
19739;SDS011;10027;51.066;13.768;2024-02-23T06:36:59;1.23;;;0.30;;
19739;SDS011;10027;51.066;13.768;2024-02-23T06:39:26;0.73;;;0.30;;
19739;SDS011;10027;51.066;13.768;2024-02-23T06:41:53;0.50;;;0.33;;
19739;SDS011;10027;51.066;13.768;2024-02-23T06:44:20;0.83;;;0.30;;
19739;SDS011;10027;51.066;13.768;2024-02-23T06:46:48;0.60;;;0.40;;
19739;SDS011;10027;51.066;13.768;2024-02-23T06:49:15;1.67;;;0.40;;
19739;SDS011;10027;51.066;13.768;2024-02-23T06:51:42;1.10;;;0.50;;
19739;SDS011;10027;51.066;13.768;2024-02-23T06:54:09;0.67;;;0.50;;
19739;SDS011;10027;51.066;13.768;2024-02-23T06:56:36;0.80;;;0.50;;
19739;SDS011;10027;51.066;13.768;2024-02-23T06:59:03;2.20;;;0.80;;
19739;SDS011;10027;51.066;13.768;2024-02-23T07:01:31;0.53;;;0.50;;
19739;SDS011;10027;51.066;13.768;2024-02-23T07:04:05;0.80;;;0.60;;
19739;SDS011;10027;51.066;13.768;2024-02-23T07:06:32;2.17;;;0.80;;
19739;SDS011;10027;51.066;13.768;2024-02-23T07:09:01;0.80;;;0.50;;
19739;SDS011;10027;51.066;13.768;2024-02-23T07:11:29;2.33;;;0.50;;
19739;SDS011;10027;51.066;13.768;2024-02-23T07:13:57;0.67;;;0.40;;
19739;SDS011;10027;51.066;13.768;2024-02-23T07:16:24;1.17;;;0.40;;
19739;SDS011;10027;51.066;13.768;2024-02-23T07:18:51;3.80;;;0.90;;
19739;SDS011;10027;51.066;13.768;2024-02-23T07:21:18;1.40;;;0.80;;
19739;SDS011;10027;51.066;13.768;2024-02-23T07:23:45;2.33;;;1.17;;
19739;SDS011;10027;51.066;13.768;2024-02-23T07:26:12;3.87;;;1.73;;
19739;SDS011;10027;51.066;13.768;2024-02-23T07:28:40;4.93;;;1.10;;
19739;SDS011;10027;51.066;13.768;2024-02-23T07:31:07;2.60;;;0.53;;
19739;SDS011;10027;51.066;13.768;2024-02-23T07:33:37;1.17;;;0.50;;
19739;SDS011;10027;51.066;13.768;2024-02-23T07:36:04;2.53;;;0.70;;
19739;SDS011;10027;51.066;13.768;2024-02-23T07:38:32;1.33;;;0.40;;
19739;SDS011;10027;51.066;13.768;2024-02-23T07:40:59;0.90;;;0.30;;
19739;SDS011;10027;51.066;13.768;2024-02-23T07:43:26;4.10;;;0.60;;
19739;SDS011;10027;51.066;13.768;2024-02-23T07:45:55;1.27;;;0.57;;
19739;SDS011;10027;51.066;13.768;2024-02-23T07:48:22;1.80;;;0.60;;
19739;SDS011;10027;51.066;13.768;2024-02-23T07:50:49;0.97;;;0.60;;
19739;SDS011;10027;51.066;13.768;2024-02-23T07:53:16;0.63;;;0.30;;
19739;SDS011;10027;51.066;13.768;2024-02-23T07:55:44;0.70;;;0.27;;
19739;SDS011;10027;51.066;13.768;2024-02-23T07:58:11;0.97;;;0.47;;
19739;SDS011;10027;51.066;13.768;2024-02-23T08:00:38;1.27;;;0.30;;
19739;SDS011;10027;51.066;13.768;2024-02-23T08:03:05;1.47;;;0.30;;
19739;SDS011;10027;51.066;13.768;2024-02-23T08:05:33;1.70;;;0.47;;
19739;SDS011;10027;51.066;13.768;2024-02-23T08:08:01;0.87;;;0.37;;
19739;SDS011;10027;51.066;13.768;2024-02-23T08:10:29;1.30;;;0.30;;
19739;SDS011;10027;51.066;13.768;2024-02-23T08:12:56;1.20;;;0.40;;
19739;SDS011;10027;51.066;13.768;2024-02-23T08:15:23;0.63;;;0.40;;
19739;SDS011;10027;51.066;13.768;2024-02-23T08:17:50;0.70;;;0.30;;
19739;SDS011;10027;51.066;13.768;2024-02-23T08:20:18;0.60;;;0.30;;
19739;SDS011;10027;51.066;13.768;2024-02-23T08:22:45;0.50;;;0.33;;
19739;SDS011;10027;51.066;13.768;2024-02-23T08:25:12;2.33;;;0.40;;
19739;SDS011;10027;51.066;13.768;2024-02-23T08:27:41;2.43;;;0.50;;
19739;SDS011;10027;51.066;13.768;2024-02-23T08:30:09;3.93;;;0.80;;
19739;SDS011;10027;51.066;13.768;2024-02-23T08:32:37;1.87;;;0.57;;
19739;SDS011;10027;51.066;13.768;2024-02-23T08:35:04;0.90;;;0.30;;
19739;SDS011;10027;51.066;13.768;2024-02-23T08:37:32;0.67;;;0.50;;
19739;SDS011;10027;51.066;13.768;2024-02-23T08:39:59;0.40;;;0.20;;
19739;SDS011;10027;51.066;13.768;2024-02-23T08:42:27;1.37;;;0.33;;
19739;SDS011;10027;51.066;13.768;2024-02-23T08:44:54;1.93;;;0.40;;
19739;SDS011;10027;51.066;13.768;2024-02-23T08:47:21;0.30;;;0.20;;
19739;SDS011;10027;51.066;13.768;2024-02-23T08:49:49;1.50;;;0.30;;
19739;SDS011;10027;51.066;13.768;2024-02-23T08:52:16;0.50;;;0.27;;
19739;SDS011;10027;51.066;13.768;2024-02-23T08:54:43;0.80;;;0.37;;
19739;SDS011;10027;51.066;13.768;2024-02-23T08:57:10;1.53;;;0.30;;
19739;SDS011;10027;51.066;13.768;2024-02-23T08:59:37;0.53;;;0.20;;
19739;SDS011;10027;51.066;13.768;2024-02-23T09:02:05;3.33;;;0.73;;
19739;SDS011;10027;51.066;13.768;2024-02-23T09:04:32;2.40;;;0.70;;
19739;SDS011;10027;51.066;13.768;2024-02-23T09:06:59;0.87;;;0.40;;
19739;SDS011;10027;51.066;13.768;2024-02-23T09:09:27;2.53;;;0.70;;
19739;SDS011;10027;51.066;13.768;2024-02-23T09:11:54;1.00;;;0.40;;
19739;SDS011;10027;51.066;13.768;2024-02-23T09:14:21;2.17;;;0.60;;
19739;SDS011;10027;51.066;13.768;2024-02-23T09:16:48;2.57;;;0.57;;
19739;SDS011;10027;51.066;13.768;2024-02-23T09:19:17;0.90;;;0.53;;
19739;SDS011;10027;51.066;13.768;2024-02-23T09:21:44;1.03;;;0.40;;
19739;SDS011;10027;51.066;13.768;2024-02-23T09:24:12;2.10;;;0.33;;
19739;SDS011;10027;51.066;13.768;2024-02-23T09:26:39;1.03;;;0.40;;
19739;SDS011;10027;51.066;13.768;2024-02-23T09:29:06;1.53;;;0.37;;
19739;SDS011;10027;51.066;13.768;2024-02-23T09:31:33;1.13;;;0.40;;
19739;SDS011;10027;51.066;13.768;2024-02-23T09:34:00;0.60;;;0.40;;
19739;SDS011;10027;51.066;13.768;2024-02-23T09:36:28;2.87;;;0.87;;
19739;SDS011;10027;51.066;13.768;2024-02-23T09:38:56;2.20;;;0.60;;
19739;SDS011;10027;51.066;13.768;2024-02-23T09:41:23;1.80;;;0.60;;
19739;SDS011;10027;51.066;13.768;2024-02-23T09:43:51;0.70;;;0.40;;
19739;SDS011;10027;51.066;13.768;2024-02-23T09:46:19;0.93;;;0.50;;
19739;SDS011;10027;51.066;13.768;2024-02-23T09:48:47;1.23;;;0.40;;
19739;SDS011;10027;51.066;13.768;2024-02-23T09:51:15;0.87;;;0.50;;
19739;SDS011;10027;51.066;13.768;2024-02-23T09:53:43;0.70;;;0.67;;
19739;SDS011;10027;51.066;13.768;2024-02-23T09:56:11;0.70;;;0.30;;
19739;SDS011;10027;51.066;13.768;2024-02-23T09:58:39;2.03;;;0.50;;
19739;SDS011;10027;51.066;13.768;2024-02-23T10:01:06;1.13;;;0.70;;
19739;SDS011;10027;51.066;13.768;2024-02-23T10:03:33;0.30;;;0.27;;
19739;SDS011;10027;51.066;13.768;2024-02-23T10:06:01;2.57;;;0.83;;
19739;SDS011;10027;51.066;13.768;2024-02-23T10:08:28;3.93;;;0.87;;
19739;SDS011;10027;51.066;13.768;2024-02-23T10:10:55;1.50;;;0.20;;
19739;SDS011;10027;51.066;13.768;2024-02-23T10:13:23;1.03;;;0.33;;
19739;SDS011;10027;51.066;13.768;2024-02-23T10:15:51;2.50;;;0.40;;
19739;SDS011;10027;51.066;13.768;2024-02-23T10:18:38;3.30;;;0.43;;
19739;SDS011;10027;51.066;13.768;2024-02-23T10:21:05;1.63;;;0.37;;
19739;SDS011;10027;51.066;13.768;2024-02-23T10:23:32;1.80;;;0.50;;
19739;SDS011;10027;51.066;13.768;2024-02-23T10:26:06;0.90;;;0.30;;
19739;SDS011;10027;51.066;13.768;2024-02-23T10:28:34;1.20;;;0.37;;
19739;SDS011;10027;51.066;13.768;2024-02-23T10:31:02;1.07;;;0.43;;
19739;SDS011;10027;51.066;13.768;2024-02-23T10:33:29;1.73;;;0.40;;
19739;SDS011;10027;51.066;13.768;2024-02-23T10:35:57;0.70;;;0.33;;
19739;SDS011;10027;51.066;13.768;2024-02-23T10:38:25;0.80;;;0.30;;
19739;SDS011;10027;51.066;13.768;2024-02-23T10:40:54;0.43;;;0.20;;
19739;SDS011;10027;51.066;13.768;2024-02-23T10:44:07;0.40;;;0.30;;
19739;SDS011;10027;51.066;13.768;2024-02-23T10:46:16;1.33;;;0.40;;
19739;SDS011;10027;51.066;13.768;2024-02-23T10:48:45;0.40;;;0.20;;
19739;SDS011;10027;51.066;13.768;2024-02-23T10:51:13;0.70;;;0.30;;
19739;SDS011;10027;51.066;13.768;2024-02-23T10:53:46;3.03;;;0.80;;
19739;SDS011;10027;51.066;13.768;2024-02-23T10:56:13;0.40;;;0.13;;
19739;SDS011;10027;51.066;13.768;2024-02-23T10:58:40;1.03;;;0.30;;
19739;SDS011;10027;51.066;13.768;2024-02-23T11:01:07;1.90;;;0.40;;
19739;SDS011;10027;51.066;13.768;2024-02-23T11:03:36;1.30;;;0.40;;
19739;SDS011;10027;51.066;13.768;2024-02-23T11:06:07;1.23;;;0.70;;
19739;SDS011;10027;51.066;13.768;2024-02-23T11:08:34;0.63;;;0.40;;
19739;SDS011;10027;51.066;13.768;2024-02-23T11:11:08;0.60;;;0.27;;
19739;SDS011;10027;51.066;13.768;2024-02-23T11:13:39;2.23;;;0.40;;
19739;SDS011;10027;51.066;13.768;2024-02-23T11:16:07;1.30;;;0.30;;
19739;SDS011;10027;51.066;13.768;2024-02-23T11:18:35;0.43;;;0.30;;
19739;SDS011;10027;51.066;13.768;2024-02-23T11:21:03;2.20;;;0.30;;
19739;SDS011;10027;51.066;13.768;2024-02-23T11:23:40;0.70;;;0.20;;
19739;SDS011;10027;51.066;13.768;2024-02-23T11:26:12;0.30;;;0.20;;
19739;SDS011;10027;51.066;13.768;2024-02-23T11:31:19;1.47;;;0.80;;
19739;SDS011;10027;51.066;13.768;2024-02-23T11:33:53;1.13;;;0.30;;
19739;SDS011;10027;51.066;13.768;2024-02-23T11:36:30;0.20;;;0.10;;
19739;SDS011;10027;51.066;13.768;2024-02-23T11:38:59;1.03;;;0.30;;
19739;SDS011;10027;51.066;13.768;2024-02-23T11:41:27;0.30;;;0.20;;
19739;SDS011;10027;51.066;13.768;2024-02-23T11:43:55;0.30;;;0.20;;
19739;SDS011;10027;51.066;13.768;2024-02-23T11:46:22;1.40;;;0.20;;
19739;SDS011;10027;51.066;13.768;2024-02-23T11:48:50;2.40;;;0.30;;
19739;SDS011;10027;51.066;13.768;2024-02-23T11:51:20;0.50;;;0.20;;
19739;SDS011;10027;51.066;13.768;2024-02-23T11:53:48;0.50;;;0.27;;
19739;SDS011;10027;51.066;13.768;2024-02-23T11:56:15;0.73;;;0.37;;
19739;SDS011;10027;51.066;13.768;2024-02-23T11:58:45;1.10;;;0.20;;
19739;SDS011;10027;51.066;13.768;2024-02-23T12:01:13;4.63;;;0.50;;
19739;SDS011;10027;51.066;13.768;2024-02-23T12:03:41;1.83;;;0.23;;
19739;SDS011;10027;51.066;13.768;2024-02-23T12:06:10;0.27;;;0.10;;
19739;SDS011;10027;51.066;13.768;2024-02-23T12:08:37;0.57;;;0.40;;
19739;SDS011;10027;51.066;13.768;2024-02-23T12:11:05;0.60;;;0.37;;
19739;SDS011;10027;51.066;13.768;2024-02-23T12:13:35;1.07;;;0.50;;
19739;SDS011;10027;51.066;13.768;2024-02-23T12:16:02;0.43;;;0.37;;
19739;SDS011;10027;51.066;13.768;2024-02-23T12:18:30;0.60;;;0.30;;
19739;SDS011;10027;51.066;13.768;2024-02-23T12:21:00;0.60;;;0.40;;
19739;SDS011;10027;51.066;13.768;2024-02-23T12:23:43;1.53;;;0.30;;
19739;SDS011;10027;51.066;13.768;2024-02-23T12:26:15;0.73;;;0.20;;
19739;SDS011;10027;51.066;13.768;2024-02-23T12:28:42;2.10;;;0.30;;
19739;SDS011;10027;51.066;13.768;2024-02-23T12:31:10;0.87;;;0.37;;
19739;SDS011;10027;51.066;13.768;2024-02-23T12:33:38;0.60;;;0.10;;
19739;SDS011;10027;51.066;13.768;2024-02-23T12:36:14;1.07;;;0.20;;
19739;SDS011;10027;51.066;13.768;2024-02-23T12:38:42;0.93;;;0.10;;
19739;SDS011;10027;51.066;13.768;2024-02-23T12:41:09;0.60;;;0.27;;
19739;SDS011;10027;51.066;13.768;2024-02-23T12:43:37;0.73;;;0.20;;
19739;SDS011;10027;51.066;13.768;2024-02-23T12:46:08;0.57;;;0.20;;
19739;SDS011;10027;51.066;13.768;2024-02-23T12:48:35;1.60;;;0.33;;
19739;SDS011;10027;51.066;13.768;2024-02-23T12:51:03;0.30;;;0.10;;
19739;SDS011;10027;51.066;13.768;2024-02-23T12:56:01;0.87;;;0.30;;
19739;SDS011;10027;51.066;13.768;2024-02-23T12:58:29;2.50;;;0.30;;
19739;SDS011;10027;51.066;13.768;2024-02-23T13:00:57;0.47;;;0.30;;
19739;SDS011;10027;51.066;13.768;2024-02-23T13:03:24;0.10;;;0.10;;
19739;SDS011;10027;51.066;13.768;2024-02-23T13:05:53;0.40;;;0.20;;
19739;SDS011;10027;51.066;13.768;2024-02-23T13:08:21;2.13;;;0.40;;
19739;SDS011;10027;51.066;13.768;2024-02-23T13:10:49;1.53;;;0.30;;
19739;SDS011;10027;51.066;13.768;2024-02-23T13:13:16;0.70;;;0.30;;
19739;SDS011;10027;51.066;13.768;2024-02-23T13:15:44;0.60;;;0.60;;
19739;SDS011;10027;51.066;13.768;2024-02-23T13:18:11;0.70;;;0.33;;
19739;SDS011;10027;51.066;13.768;2024-02-23T13:20:38;0.57;;;0.30;;
19739;SDS011;10027;51.066;13.768;2024-02-23T13:23:08;0.57;;;0.10;;
19739;SDS011;10027;51.066;13.768;2024-02-23T13:25:35;1.40;;;0.30;;
19739;SDS011;10027;51.066;13.768;2024-02-23T13:28:03;0.53;;;0.30;;
19739;SDS011;10027;51.066;13.768;2024-02-23T13:30:33;0.73;;;0.20;;
19739;SDS011;10027;51.066;13.768;2024-02-23T13:33:01;1.23;;;0.50;;
19739;SDS011;10027;51.066;13.768;2024-02-23T13:35:29;0.20;;;0.20;;
19739;SDS011;10027;51.066;13.768;2024-02-23T13:37:56;1.37;;;0.20;;
19739;SDS011;10027;51.066;13.768;2024-02-23T13:40:29;0.93;;;0.20;;
19739;SDS011;10027;51.066;13.768;2024-02-23T13:42:57;0.60;;;0.30;;
19739;SDS011;10027;51.066;13.768;2024-02-23T13:45:25;1.57;;;0.40;;
19739;SDS011;10027;51.066;13.768;2024-02-23T13:47:56;1.03;;;0.30;;
19739;SDS011;10027;51.066;13.768;2024-02-23T13:50:23;0.50;;;0.30;;
19739;SDS011;10027;51.066;13.768;2024-02-23T13:52:51;1.27;;;0.40;;
19739;SDS011;10027;51.066;13.768;2024-02-23T13:55:18;1.00;;;0.40;;
19739;SDS011;10027;51.066;13.768;2024-02-23T13:57:48;0.93;;;0.33;;
19739;SDS011;10027;51.066;13.768;2024-02-23T14:00:16;1.60;;;0.57;;
19739;SDS011;10027;51.066;13.768;2024-02-23T14:02:44;0.60;;;0.40;;
19739;SDS011;10027;51.066;13.768;2024-02-23T14:05:12;0.63;;;0.30;;
19739;SDS011;10027;51.066;13.768;2024-02-23T14:07:40;0.97;;;0.40;;
19739;SDS011;10027;51.066;13.768;2024-02-23T14:10:07;0.43;;;0.20;;
19739;SDS011;10027;51.066;13.768;2024-02-23T14:12:34;1.93;;;0.50;;
19739;SDS011;10027;51.066;13.768;2024-02-23T14:15:01;0.50;;;0.40;;
19739;SDS011;10027;51.066;13.768;2024-02-23T14:17:29;0.60;;;0.57;;
19739;SDS011;10027;51.066;13.768;2024-02-23T14:19:56;0.97;;;0.57;;
19739;SDS011;10027;51.066;13.768;2024-02-23T14:22:23;0.80;;;0.30;;
19739;SDS011;10027;51.066;13.768;2024-02-23T14:24:50;1.57;;;0.60;;
19739;SDS011;10027;51.066;13.768;2024-02-23T14:27:18;1.67;;;0.50;;
19739;SDS011;10027;51.066;13.768;2024-02-23T14:29:45;0.93;;;0.40;;
19739;SDS011;10027;51.066;13.768;2024-02-23T14:32:15;1.77;;;0.70;;
19739;SDS011;10027;51.066;13.768;2024-02-23T14:34:43;0.77;;;0.40;;
19739;SDS011;10027;51.066;13.768;2024-02-23T14:37:10;1.40;;;1.10;;
19739;SDS011;10027;51.066;13.768;2024-02-23T14:39:37;1.37;;;0.50;;
19739;SDS011;10027;51.066;13.768;2024-02-23T14:42:04;0.40;;;0.30;;